Wellton, Arizona
Current Conditions -  °F | °C
As of 12:57 AM on Thursday 23 Oct 2014 (Local Time) from KNYL Reporting Station
Broken Clouds Broken Clouds  
Wind Chill: 24°   Ceiling: 30000
Heat Index: 24°   Visibility: 10mi
Dew Point: 11°   Wind: 0mph
Humidity: 43%   Direction: NA
Pressure: 29.9"   Gusts: NA
Location:  32.67°N, 114.15°W
Report Text: KNYL 230757Z 00000KT 10SM BKN300 24/11 A2990 RMK AO2 SLP123 T02440111
Loading
Personal Weather Stations






























Interactive Weather Map
Tropical Storm Tracking
New forecast layout! Learn more

10-Day Weather Forecast

Advertisements
Track Severe Weather on mobile